Time;durP1;ratioP1;P1;durP2;ratioP2;P2;SDS_P1;SDS_P2;PMS_P1;PMS_P2;Temp;Humidity;BMP_temperature;BMP_pressure;BME280_temperature;BME280_humidity;BME280_pressure;Samples;Min_cycle;Max_cycle;Signal;HPM_P1;HPM_P2
2022/09/10 00:02:06;;;;;;;9.75;6.97;;;;;;;;;;5095179;28;20202;-53
2022/09/10 00:04:33;;;;;;;11.90;7.60;;;;;;;;;;5093966;28;20658;-56
2022/09/10 00:07:00;;;;;;;11.32;7.13;;;;;;;;;;5094645;28;20203;-55
2022/09/10 00:09:27;;;;;;;11.13;7.85;;;;;;;;;;5095323;28;20314;-56
2022/09/10 00:11:55;;;;;;;12.32;7.38;;;;;;;;;;5094837;28;20252;-54
2022/09/10 00:14:23;;;;;;;11.98;7.15;;;;;;;;;;5094746;28;20213;-56
2022/09/10 00:16:50;;;;;;;10.75;6.78;;;;;;;;;;5093930;28;20289;-54
2022/09/10 00:19:17;;;;;;;10.27;7.10;;;;;;;;;;5094675;28;20730;-55
2022/09/10 00:21:44;;;;;;;8.65;6.60;;;;;;;;;;5091840;28;20229;-54
2022/09/10 00:24:11;;;;;;;12.57;7.13;;;;;;;;;;5094319;28;20209;-53
2022/09/10 00:26:39;;;;;;;9.07;6.55;;;;;;;;;;5094705;28;20277;-55
2022/09/10 00:29:09;;;;;;;11.02;6.30;;;;;;;;;;5096197;28;20206;-55
2022/09/10 00:31:36;;;;;;;8.60;6.50;;;;;;;;;;5080630;28;20242;-55
2022/09/10 00:34:04;;;;;;;8.55;6.28;;;;;;;;;;5097205;28;20209;-54
2022/09/10 00:36:35;;;;;;;9.07;6.65;;;;;;;;;;5098348;28;20202;-55
2022/09/10 00:39:08;;;;;;;9.98;6.57;;;;;;;;;;5098199;28;20226;-53
2022/09/10 00:41:38;;;;;;;9.25;6.50;;;;;;;;;;5097367;28;20707;-53
2022/09/10 00:44:36;;;;;;;8.25;5.63;;;;;;;;;;5098208;28;20230;-54
2022/09/10 00:47:08;;;;;;;7.95;5.75;;;;;;;;;;5098548;28;20206;-54
2022/09/10 00:49:39;;;;;;;10.30;6.10;;;;;;;;;;5080293;28;20234;-55
2022/09/10 00:52:06;;;;;;;11.60;6.72;;;;;;;;;;5080895;28;20222;-54
2022/09/10 00:54:35;;;;;;;9.20;6.05;;;;;;;;;;5097093;28;20294;-53
2022/09/10 00:57:06;;;;;;;8.63;6.15;;;;;;;;;;5096836;28;20285;-54
2022/09/10 00:59:34;;;;;;;8.13;5.70;;;;;;;;;;5097517;28;20291;-53
2022/09/10 01:02:02;;;;;;;9.15;6.00;;;;;;;;;;5097921;28;20206;-54
2022/09/10 01:04:31;;;;;;;9.82;5.78;;;;;;;;;;5097829;28;20298;-56
2022/09/10 01:06:59;;;;;;;11.15;6.22;;;;;;;;;;5097779;28;20203;-57
2022/09/10 01:09:27;;;;;;;9.43;6.18;;;;;;;;;;5080034;28;20210;-55
2022/09/10 01:12:13;;;;;;;9.25;6.47;;;;;;;;;;5096964;28;20195;-54
2022/09/10 01:14:40;;;;;;;12.65;6.20;;;;;;;;;;5097714;28;20194;-56
2022/09/10 01:17:21;;;;;;;10.07;5.65;;;;;;;;;;5096758;28;20194;-57
2022/09/10 01:20:16;;;;;;;10.13;5.90;;;;;;;;;;5096588;28;20546;-55
2022/09/10 01:22:52;;;;;;;14.43;6.20;;;;;;;;;;5097689;28;20535;-54
2022/09/10 01:25:44;;;;;;;8.85;6.07;;;;;;;;;;5096518;28;20201;-54
2022/09/10 01:28:20;;;;;;;9.32;6.70;;;;;;;;;;5097479;28;20211;-56
2022/09/10 01:30:51;;;;;;;7.55;5.68;;;;;;;;;;5096891;28;20198;-55
2022/09/10 01:33:32;;;;;;;9.73;6.40;;;;;;;;;;5096208;28;20708;-56
2022/09/10 01:36:05;;;;;;;7.05;5.57;;;;;;;;;;5080333;28;20271;-57
2022/09/10 01:38:34;;;;;;;9.63;6.40;;;;;;;;;;5079449;28;20222;-52
2022/09/10 01:41:04;;;;;;;9.68;5.70;;;;;;;;;;5095574;28;20199;-54
2022/09/10 01:43:36;;;;;;;8.85;5.55;;;;;;;;;;5096444;28;20203;-54
2022/09/10 01:46:05;;;;;;;9.93;6.00;;;;;;;;;;5097128;28;20206;-54
2022/09/10 01:49:08;;;;;;;10.48;6.10;;;;;;;;;;5096202;28;20234;-54
2022/09/10 01:51:42;;;;;;;10.55;6.43;;;;;;;;;;5096076;28;20222;-57
2022/09/10 01:54:47;;;;;;;10.93;6.43;;;;;;;;;;5096730;28;20591;-57
2022/09/10 01:57:22;;;;;;;8.65;6.10;;;;;;;;;;5096777;28;20631;-54
2022/09/10 01:59:56;;;;;;;9.18;6.25;;;;;;;;;;5079052;28;20222;-56
2022/09/10 02:02:27;;;;;;;13.48;6.68;;;;;;;;;;5095902;28;20608;-54
2022/09/10 02:04:56;;;;;;;11.40;6.47;;;;;;;;;;5079286;28;20709;-55
2022/09/10 02:07:23;;;;;;;15.95;6.90;;;;;;;;;;5078987;28;20272;-55
2022/09/10 02:09:51;;;;;;;11.18;6.72;;;;;;;;;;5078877;28;20297;-56
2022/09/10 02:12:20;;;;;;;9.40;6.18;;;;;;;;;;5079255;28;20202;-55
2022/09/10 02:14:55;;;;;;;12.52;7.18;;;;;;;;;;5095781;28;20207;-57
2022/09/10 02:17:43;;;;;;;9.13;6.57;;;;;;;;;;5074353;28;20252;-54
2022/09/10 02:20:13;;;;;;;12.00;6.85;;;;;;;;;;5095424;28;20226;-57
2022/09/10 02:22:58;;;;;;;10.00;6.10;;;;;;;;;;5097303;28;20314;-55
2022/09/10 02:25:30;;;;;;;9.07;5.93;;;;;;;;;;5096523;28;20187;-50
2022/09/10 02:27:58;;;;;;;9.82;6.13;;;;;;;;;;5095724;28;20203;-54
2022/09/10 02:30:25;;;;;;;11.75;6.20;;;;;;;;;;5095389;28;20199;-51
2022/09/10 02:32:52;;;;;;;10.50;5.53;;;;;;;;;;5096110;28;20206;-55
2022/09/10 02:35:20;;;;;;;8.25;5.55;;;;;;;;;;5096312;28;20209;-56
2022/09/10 02:37:49;;;;;;;10.38;5.82;;;;;;;;;;5095108;28;20214;-55
2022/09/10 02:40:19;;;;;;;10.70;6.03;;;;;;;;;;5096293;28;20202;-55
2022/09/10 02:42:47;;;;;;;9.90;5.90;;;;;;;;;;5095339;28;20213;-55
2022/09/10 02:45:20;;;;;;;8.23;5.88;;;;;;;;;;5095061;28;20191;-54
2022/09/10 02:47:47;;;;;;;6.53;5.05;;;;;;;;;;5095693;28;20356;-52
2022/09/10 02:50:15;;;;;;;10.73;4.72;;;;;;;;;;5094576;28;20199;-55
2022/09/10 02:52:47;;;;;;;9.25;5.68;;;;;;;;;;5094831;28;20195;-53
2022/09/10 02:55:14;;;;;;;10.98;5.63;;;;;;;;;;5095041;28;20210;-54
2022/09/10 02:57:42;;;;;;;9.02;5.18;;;;;;;;;;5094760;28;20212;-53
2022/09/10 03:00:10;;;;;;;7.22;5.00;;;;;;;;;;5094788;28;20226;-56
2022/09/10 03:02:37;;;;;;;10.23;4.68;;;;;;;;;;5095594;28;20202;-54
2022/09/10 03:05:05;;;;;;;7.90;5.22;;;;;;;;;;5094872;28;20234;-54
2022/09/10 03:07:33;;;;;;;8.65;4.97;;;;;;;;;;5111631;28;20206;-57
2022/09/10 03:10:00;;;;;;;6.88;4.90;;;;;;;;;;5094667;28;20230;-55
2022/09/10 03:12:27;;;;;;;8.32;5.38;;;;;;;;;;5095457;28;20218;-56
2022/09/10 03:14:55;;;;;;;9.10;4.78;;;;;;;;;;5094326;28;20209;-55
2022/09/10 03:17:22;;;;;;;8.40;4.85;;;;;;;;;;5095618;28;20222;-57
2022/09/10 03:19:48;;;;;;;7.20;4.50;;;;;;;;;;5094440;28;20556;-55
2022/09/10 03:22:16;;;;;;;8.40;4.80;;;;;;;;;;5095437;28;20214;-54
2022/09/10 03:24:42;;;;;;;6.40;4.60;;;;;;;;;;5095307;28;20289;-55
2022/09/10 03:27:09;;;;;;;8.70;5.20;;;;;;;;;;5095106;28;20245;-57
2022/09/10 03:29:36;;;;;;;7.28;4.40;;;;;;;;;;5094012;28;20210;-52
2022/09/10 03:32:04;;;;;;;9.30;4.68;;;;;;;;;;5095069;28;20194;-55
2022/09/10 03:34:30;;;;;;;8.55;4.63;;;;;;;;;;5094999;28;20218;-57
2022/09/10 03:36:58;;;;;;;7.30;4.60;;;;;;;;;;5093749;28;20206;-55
2022/09/10 03:39:24;;;;;;;7.85;5.20;;;;;;;;;;5093619;28;20233;-54
2022/09/10 03:41:51;;;;;;;6.55;4.68;;;;;;;;;;5093786;28;20235;-53
2022/09/10 03:44:18;;;;;;;7.45;4.68;;;;;;;;;;5094565;28;20555;-55
2022/09/10 03:46:47;;;;;;;7.57;4.55;;;;;;;;;;5093669;28;20579;-56
2022/09/10 03:49:16;;;;;;;7.53;4.47;;;;;;;;;;5093406;28;20231;-56
2022/09/10 03:51:43;;;;;;;6.22;4.40;;;;;;;;;;5093752;28;20215;-54
2022/09/10 03:54:12;;;;;;;6.60;4.07;;;;;;;;;;5093582;28;20202;-54
2022/09/10 03:56:41;;;;;;;10.35;4.82;;;;;;;;;;5094705;28;20628;-56
2022/09/10 03:59:08;;;;;;;11.32;4.65;;;;;;;;;;5083372;28;20249;-53
2022/09/10 04:01:35;;;;;;;8.13;4.55;;;;;;;;;;5114031;28;20206;-52
2022/09/10 04:04:04;;;;;;;9.48;4.55;;;;;;;;;;5133813;27;20627;-54
2022/09/10 04:06:32;;;;;;;5.70;4.25;;;;;;;;;;5118848;28;20198;-57
2022/09/10 04:09:00;;;;;;;7.43;4.45;;;;;;;;;;5135084;27;20300;-56
2022/09/10 04:11:27;;;;;;;7.45;4.78;;;;;;;;;;5135274;27;20259;-55
2022/09/10 04:13:56;;;;;;;7.85;4.47;;;;;;;;;;5117851;28;20630;-53
2022/09/10 04:16:24;;;;;;;7.00;4.28;;;;;;;;;;5117943;28;20202;-54
2022/09/10 04:18:51;;;;;;;5.28;3.95;;;;;;;;;;5117646;28;20661;-56
2022/09/10 04:21:19;;;;;;;9.73;5.35;;;;;;;;;;5134695;27;20695;-55
2022/09/10 04:23:52;;;;;;;8.30;4.68;;;;;;;;;;5117637;28;20236;-56
2022/09/10 04:26:21;;;;;;;8.02;4.18;;;;;;;;;;5117671;28;20249;-53
2022/09/10 04:28:49;;;;;;;7.95;4.45;;;;;;;;;;5134742;27;20609;-54
2022/09/10 04:31:17;;;;;;;12.10;4.60;;;;;;;;;;5134639;27;20688;-53
2022/09/10 04:33:45;;;;;;;7.90;4.72;;;;;;;;;;5134595;27;20206;-54
2022/09/10 04:36:13;;;;;;;7.80;4.75;;;;;;;;;;5118530;28;20229;-57
2022/09/10 04:38:42;;;;;;;7.88;5.18;;;;;;;;;;5134707;27;20232;-56
2022/09/10 04:41:14;;;;;;;6.22;4.35;;;;;;;;;;5117571;28;20198;-54
2022/09/10 04:43:42;;;;;;;9.07;4.22;;;;;;;;;;5134954;27;20206;-52
2022/09/10 04:46:09;;;;;;;8.27;4.60;;;;;;;;;;5117416;28;20213;-55
2022/09/10 04:48:39;;;;;;;7.28;4.97;;;;;;;;;;5117227;28;20689;-56
2022/09/10 04:51:10;;;;;;;7.43;4.45;;;;;;;;;;5134846;27;20202;-54
2022/09/10 04:53:47;;;;;;;7.45;5.15;;;;;;;;;;5128569;27;20218;-57
2022/09/10 04:56:14;;;;;;;7.78;4.70;;;;;;;;;;5116543;28;20218;-56
2022/09/10 04:58:42;;;;;;;8.27;4.78;;;;;;;;;;5112333;28;20679;-57
2022/09/10 05:01:10;;;;;;;8.70;4.78;;;;;;;;;;5107967;28;20245;-57
2022/09/10 05:03:38;;;;;;;8.65;5.18;;;;;;;;;;5103117;28;20313;-57
2022/09/10 05:06:06;;;;;;;9.45;4.80;;;;;;;;;;5103799;28;20252;-57
2022/09/10 05:08:35;;;;;;;7.90;4.70;;;;;;;;;;5104495;28;20222;-57
2022/09/10 05:11:04;;;;;;;7.88;4.25;;;;;;;;;;5095952;28;20683;-57
2022/09/10 05:13:31;;;;;;;8.95;4.90;;;;;;;;;;5095853;28;20219;-55
2022/09/10 05:16:00;;;;;;;8.48;5.05;;;;;;;;;;5096759;28;20215;-58
2022/09/10 05:18:29;;;;;;;8.82;4.90;;;;;;;;;;5096452;28;20238;-56
2022/09/10 05:20:56;;;;;;;9.13;5.13;;;;;;;;;;5096388;28;20582;-55
2022/09/10 05:23:23;;;;;;;9.30;5.13;;;;;;;;;;5096617;28;20276;-56
2022/09/10 05:25:52;;;;;;;10.27;5.00;;;;;;;;;;5096525;28;20253;-55
2022/09/10 05:28:20;;;;;;;10.27;4.82;;;;;;;;;;5096197;28;20634;-57
2022/09/10 05:30:48;;;;;;;9.65;4.85;;;;;;;;;;5095582;28;20230;-57
2022/09/10 05:33:20;;;;;;;7.57;4.72;;;;;;;;;;5080480;28;20187;-55
2022/09/10 05:35:50;;;;;;;6.53;4.32;;;;;;;;;;5095600;28;20199;-56
2022/09/10 05:38:19;;;;;;;8.48;4.95;;;;;;;;;;5096039;28;20630;-55
2022/09/10 05:40:47;;;;;;;8.50;4.85;;;;;;;;;;5096052;28;20226;-54
2022/09/10 05:43:14;;;;;;;6.88;4.15;;;;;;;;;;5096081;28;20211;-55
2022/09/10 05:45:43;;;;;;;5.65;4.22;;;;;;;;;;5095942;28;20232;-56
2022/09/10 05:48:10;;;;;;;8.77;4.72;;;;;;;;;;5095381;28;20223;-56
2022/09/10 05:50:37;;;;;;;7.15;4.55;;;;;;;;;;5094928;28;20297;-54
2022/09/10 05:53:04;;;;;;;5.43;3.83;;;;;;;;;;5105744;28;20281;-56
2022/09/10 05:55:32;;;;;;;7.25;4.65;;;;;;;;;;5115610;28;20194;-55
2022/09/10 05:58:01;;;;;;;6.53;4.38;;;;;;;;;;5112157;28;20314;-58
2022/09/10 06:00:29;;;;;;;8.45;4.18;;;;;;;;;;5112052;28;20220;-59
2022/09/10 06:02:59;;;;;;;6.53;4.40;;;;;;;;;;5109674;28;20681;-57
2022/09/10 06:05:51;;;;;;;6.78;4.22;;;;;;;;;;5113455;28;20222;-58
2022/09/10 06:08:25;;;;;;;5.90;4.07;;;;;;;;;;5111249;28;20548;-56
2022/09/10 06:11:04;;;;;;;7.25;4.22;;;;;;;;;;5113440;28;20310;-60
2022/09/10 06:13:41;;;;;;;7.75;4.93;;;;;;;;;;5112988;28;20690;-58
2022/09/10 06:16:08;;;;;;;6.55;4.10;;;;;;;;;;5112935;28;20226;-58
2022/09/10 06:18:35;;;;;;;8.57;4.32;;;;;;;;;;5110681;28;20218;-56
2022/09/10 06:21:05;;;;;;;7.97;4.10;;;;;;;;;;5113043;28;20773;-56
2022/09/10 06:23:34;;;;;;;8.20;4.88;;;;;;;;;;5111663;28;20277;-59
2022/09/10 06:26:04;;;;;;;6.97;4.57;;;;;;;;;;5109127;28;20214;-59
2022/09/10 06:28:33;;;;;;;6.93;4.32;;;;;;;;;;5110597;28;20239;-59
2022/09/10 06:31:04;;;;;;;7.72;4.50;;;;;;;;;;5126996;27;20222;-59
2022/09/10 06:33:34;;;;;;;8.07;4.53;;;;;;;;;;5096826;28;20225;-59
2022/09/10 06:36:02;;;;;;;10.50;4.80;;;;;;;;;;5104677;28;20214;-59
2022/09/10 06:38:32;;;;;;;8.75;4.93;;;;;;;;;;5113033;28;20229;-59
2022/09/10 06:41:01;;;;;;;9.23;5.65;;;;;;;;;;5107525;28;20229;-60
2022/09/10 06:43:35;;;;;;;9.13;6.00;;;;;;;;;;5074252;28;20288;-59
2022/09/10 06:46:16;;;;;;;9.40;5.60;;;;;;;;;;5093773;28;20246;-59
2022/09/10 06:49:09;;;;;;;9.02;5.20;;;;;;;;;;5112249;28;20546;-60
2022/09/10 06:51:38;;;;;;;7.57;4.80;;;;;;;;;;5113675;28;20280;-60
2022/09/10 06:54:07;;;;;;;7.97;5.05;;;;;;;;;;5112108;28;20230;-60
2022/09/10 06:56:36;;;;;;;8.88;5.20;;;;;;;;;;5112328;28;20583;-60
2022/09/10 06:59:03;;;;;;;8.13;5.28;;;;;;;;;;5112504;28;20218;-59
2022/09/10 07:01:38;;;;;;;8.55;5.15;;;;;;;;;;5113578;28;20235;-59
2022/09/10 07:04:05;;;;;;;9.52;5.63;;;;;;;;;;5113094;28;20290;-60
2022/09/10 07:06:34;;;;;;;8.77;5.65;;;;;;;;;;5112732;28;20234;-60
2022/09/10 07:09:07;;;;;;;10.05;6.32;;;;;;;;;;5110708;28;20525;-60
2022/09/10 07:11:50;;;;;;;10.38;6.32;;;;;;;;;;5109777;28;20217;-60
2022/09/10 07:14:18;;;;;;;10.52;5.90;;;;;;;;;;5110694;28;20617;-60
2022/09/10 07:16:46;;;;;;;8.90;6.03;;;;;;;;;;5111024;28;20601;-59
2022/09/10 07:19:16;;;;;;;9.88;5.82;;;;;;;;;;5109658;28;20213;-60
2022/09/10 07:21:44;;;;;;;9.60;6.10;;;;;;;;;;5126351;27;20262;-59
2022/09/10 07:24:13;;;;;;;9.25;6.45;;;;;;;;;;5110196;28;20221;-60
2022/09/10 07:26:50;;;;;;;8.90;5.65;;;;;;;;;;5111049;28;20237;-60
2022/09/10 07:29:17;;;;;;;9.35;5.78;;;;;;;;;;5111467;28;20218;-60
2022/09/10 07:31:46;;;;;;;10.55;6.38;;;;;;;;;;5111561;28;20217;-59
2022/09/10 07:34:19;;;;;;;10.25;6.20;;;;;;;;;;5111033;28;20217;-60
2022/09/10 07:36:46;;;;;;;8.63;6.05;;;;;;;;;;5107659;28;20479;-60
2022/09/10 07:39:13;;;;;;;23.00;6.70;;;;;;;;;;5110733;28;20218;-59
2022/09/10 07:41:41;;;;;;;12.90;6.80;;;;;;;;;;5109807;28;20213;-59
2022/09/10 07:44:11;;;;;;;11.57;6.63;;;;;;;;;;5112590;28;20673;-60
2022/09/10 07:46:41;;;;;;;9.80;5.75;;;;;;;;;;5110642;28;20225;-59
2022/09/10 07:49:11;;;;;;;11.65;6.35;;;;;;;;;;5110994;28;20234;-59
2022/09/10 07:51:40;;;;;;;10.60;6.38;;;;;;;;;;5104920;28;20301;-56
2022/09/10 07:54:07;;;;;;;10.05;6.75;;;;;;;;;;5092552;28;20598;-57
2022/09/10 07:56:38;;;;;;;9.65;6.30;;;;;;;;;;5108598;28;20257;-57
2022/09/10 07:59:07;;;;;;;9.68;6.65;;;;;;;;;;5112471;27;20615;-58
2022/09/10 08:01:44;;;;;;;11.23;6.72;;;;;;;;;;5129606;28;20282;-57
2022/09/10 08:04:14;;;;;;;12.68;7.15;;;;;;;;;;5112547;27;20325;-57
2022/09/10 08:06:41;;;;;;;13.45;7.75;;;;;;;;;;5110757;28;20312;-57
2022/09/10 08:09:08;;;;;;;12.10;7.57;;;;;;;;;;5110632;28;20212;-57
2022/09/10 08:11:41;;;;;;;15.15;8.00;;;;;;;;;;5110643;28;20216;-56
2022/09/10 08:14:12;;;;;;;14.15;7.53;;;;;;;;;;5111412;28;20214;-60
2022/09/10 08:16:40;;;;;;;13.27;7.93;;;;;;;;;;5112142;28;20584;-59
2022/09/10 08:19:13;;;;;;;10.80;6.93;;;;;;;;;;5110860;28;20271;-59
2022/09/10 08:21:41;;;;;;;12.55;7.57;;;;;;;;;;5112895;28;20678;-59
2022/09/10 08:24:09;;;;;;;12.57;7.50;;;;;;;;;;5113122;28;20249;-59
2022/09/10 08:26:38;;;;;;;12.25;7.45;;;;;;;;;;5112750;28;20222;-59
2022/09/10 08:29:06;;;;;;;14.20;7.90;;;;;;;;;;5111273;28;20311;-59
2022/09/10 08:31:33;;;;;;;14.57;7.95;;;;;;;;;;5113087;27;20294;-59
2022/09/10 08:34:20;;;;;;;14.63;8.10;;;;;;;;;;5111902;28;20218;-59
2022/09/10 08:36:58;;;;;;;12.45;7.13;;;;;;;;;;5110018;28;20217;-59
2022/09/10 08:39:26;;;;;;;13.80;6.90;;;;;;;;;;5111236;28;20218;-59
2022/09/10 08:42:02;;;;;;;11.40;7.32;;;;;;;;;;5111544;28;20596;-59
2022/09/10 08:44:55;;;;;;;10.32;6.47;;;;;;;;;;5094243;28;20221;-59
2022/09/10 08:47:52;;;;;;;12.80;8.02;;;;;;;;;;5109650;28;20301;-58
2022/09/10 08:50:27;;;;;;;12.65;7.53;;;;;;;;;;5095288;27;20237;-59
2022/09/10 08:53:13;;;;;;;13.20;7.40;;;;;;;;;;5115241;28;20228;-59
2022/09/10 08:55:41;;;;;;;11.23;7.28;;;;;;;;;;5095932;28;20278;-59
2022/09/10 08:58:19;;;;;;;13.75;7.05;;;;;;;;;;5115046;28;20598;-59
2022/09/10 09:00:53;;;;;;;12.80;6.95;;;;;;;;;;5097946;28;20245;-58
2022/09/10 09:03:28;;;;;;;13.82;7.45;;;;;;;;;;5115342;28;20539;-59
2022/09/10 09:06:00;;;;;;;14.25;7.05;;;;;;;;;;5115910;28;20186;-59
2022/09/10 09:08:35;;;;;;;11.55;7.22;;;;;;;;;;5115643;28;20193;-60
2022/09/10 09:11:14;;;;;;;12.68;7.28;;;;;;;;;;5116124;28;20220;-59
2022/09/10 09:14:06;;;;;;;13.00;7.25;;;;;;;;;;5114575;28;20264;-59
2022/09/10 09:16:36;;;;;;;12.63;6.20;;;;;;;;;;5112723;28;20212;-59
2022/09/10 09:19:24;;;;;;;11.13;6.88;;;;;;;;;;5115379;28;20178;-59
2022/09/10 09:21:54;;;;;;;11.27;6.68;;;;;;;;;;5096417;28;20217;-59
2022/09/10 09:24:34;;;;;;;9.27;5.80;;;;;;;;;;5107036;28;20206;-59
2022/09/10 09:27:08;;;;;;;11.88;6.75;;;;;;;;;;5115207;28;20193;-59
2022/09/10 09:29:54;;;;;;;9.73;6.10;;;;;;;;;;5114738;28;20190;-59
2022/09/10 09:32:23;;;;;;;8.55;5.05;;;;;;;;;;5131948;27;20232;-59
2022/09/10 09:35:08;;;;;;;8.27;5.35;;;;;;;;;;5115382;28;20301;-59
2022/09/10 09:37:37;;;;;;;11.77;6.57;;;;;;;;;;5098502;28;20179;-59
2022/09/10 09:40:11;;;;;;;11.48;5.72;;;;;;;;;;5098188;28;20221;-59
2022/09/10 09:42:46;;;;;;;10.82;5.97;;;;;;;;;;5111591;28;20197;-59
2022/09/10 09:45:27;;;;;;;10.70;5.70;;;;;;;;;;5114051;28;20190;-59
2022/09/10 09:47:54;;;;;;;8.60;5.35;;;;;;;;;;5114242;28;20186;-59
2022/09/10 09:50:22;;;;;;;9.48;5.55;;;;;;;;;;5097273;28;20182;-59
2022/09/10 09:52:53;;;;;;;9.52;5.47;;;;;;;;;;5115589;28;20616;-59
2022/09/10 09:55:43;;;;;;;8.02;4.72;;;;;;;;;;5112847;28;20201;-59
2022/09/10 09:58:19;;;;;;;9.60;5.72;;;;;;;;;;5110390;27;20198;-59
2022/09/10 10:00:52;;;;;;;8.68;5.10;;;;;;;;;;5115204;28;20298;-60
2022/09/10 10:03:24;;;;;;;13.40;5.70;;;;;;;;;;5115227;28;20228;-59
2022/09/10 10:06:01;;;;;;;9.60;5.28;;;;;;;;;;5099245;28;20222;-59
2022/09/10 10:08:32;;;;;;;9.07;5.68;;;;;;;;;;5106864;28;20264;-59
2022/09/10 10:11:00;;;;;;;9.63;5.57;;;;;;;;;;5106405;28;20553;-59
2022/09/10 10:13:41;;;;;;;8.90;5.38;;;;;;;;;;5097180;28;20306;-59
2022/09/10 10:16:16;;;;;;;8.52;5.05;;;;;;;;;;5114807;28;20290;-59
2022/09/10 10:18:44;;;;;;;8.48;4.90;;;;;;;;;;5115723;28;20240;-59
2022/09/10 10:21:20;;;;;;;8.70;5.53;;;;;;;;;;5115214;28;20701;-58
2022/09/10 10:23:47;;;;;;;9.07;5.45;;;;;;;;;;5115627;28;20298;-59
2022/09/10 10:26:15;;;;;;;9.85;5.85;;;;;;;;;;5115694;28;20218;-59
2022/09/10 10:28:46;;;;;;;9.38;4.93;;;;;;;;;;5115568;28;20304;-58
2022/09/10 10:31:14;;;;;;;9.27;5.40;;;;;;;;;;5115494;27;20222;-59
2022/09/10 10:33:53;;;;;;;7.75;4.82;;;;;;;;;;5114737;28;20222;-59
2022/09/10 10:36:34;;;;;;;8.52;5.15;;;;;;;;;;5110288;28;20328;-60
2022/09/10 10:39:09;;;;;;;9.70;5.40;;;;;;;;;;5093093;28;20237;-56
2022/09/10 10:42:12;;;;;;;8.98;6.10;;;;;;;;;;5075824;28;20315;-55
2022/09/10 10:44:55;;;;;;;10.73;5.75;;;;;;;;;;5108162;28;20282;-50
2022/09/10 10:47:45;;;;;;;9.23;5.53;;;;;;;;;;5115539;28;20236;-53
2022/09/10 10:50:15;;;;;;;8.93;5.22;;;;;;;;;;5114877;28;20596;-52
2022/09/10 10:53:04;;;;;;;9.05;4.95;;;;;;;;;;5115349;27;20224;-58
2022/09/10 10:55:46;;;;;;;10.20;5.55;;;;;;;;;;5108506;28;20731;-56
2022/09/10 10:58:25;;;;;;;7.85;5.22;;;;;;;;;;5114531;28;20649;-54
2022/09/10 11:00:56;;;;;;;10.15;5.30;;;;;;;;;;5115164;28;20249;-54
2022/09/10 11:03:32;;;;;;;10.23;5.28;;;;;;;;;;5113423;28;20233;-55
2022/09/10 11:06:07;;;;;;;9.10;5.38;;;;;;;;;;5114208;28;20226;-56
2022/09/10 11:08:49;;;;;;;8.10;4.70;;;;;;;;;;5114502;28;20262;-56
2022/09/10 11:11:23;;;;;;;7.05;4.70;;;;;;;;;;5111351;27;20226;-58
2022/09/10 11:14:15;;;;;;;7.55;4.90;;;;;;;;;;5093980;28;20670;-56
2022/09/10 11:17:09;;;;;;;7.70;5.03;;;;;;;;;;5093479;28;20686;-59
2022/09/10 11:19:46;;;;;;;9.43;5.57;;;;;;;;;;5093948;28;20265;-49
2022/09/10 11:22:34;;;;;;;9.30;5.75;;;;;;;;;;5078707;28;20229;-57
2022/09/10 11:25:07;;;;;;;9.45;5.45;;;;;;;;;;5102628;28;20224;-56
2022/09/10 11:27:40;;;;;;;8.45;5.00;;;;;;;;;;5114210;27;20553;-53
2022/09/10 11:30:16;;;;;;;10.35;5.40;;;;;;;;;;5113889;28;20225;-55
2022/09/10 11:32:53;;;;;;;8.50;5.63;;;;;;;;;;5114529;28;20225;-55
2022/09/10 11:35:41;;;;;;;12.88;6.18;;;;;;;;;;5112059;28;20221;-59
2022/09/10 11:38:11;;;;;;;11.27;6.43;;;;;;;;;;5111623;28;20596;-59
2022/09/10 11:40:46;;;;;;;13.57;6.88;;;;;;;;;;5113052;28;20538;-59
2022/09/10 11:43:32;;;;;;;13.80;6.28;;;;;;;;;;5112583;28;20217;-59
2022/09/10 11:46:03;;;;;;;12.65;6.40;;;;;;;;;;5113086;28;20213;-59
2022/09/10 11:49:02;;;;;;;9.73;6.18;;;;;;;;;;5112787;28;20232;-57
2022/09/10 11:51:32;;;;;;;11.50;6.85;;;;;;;;;;5112889;28;20656;-59
2022/09/10 11:54:01;;;;;;;11.48;6.80;;;;;;;;;;5113883;28;20218;-58
2022/09/10 11:56:28;;;;;;;10.77;6.57;;;;;;;;;;5113450;28;20956;-59
2022/09/10 11:59:01;;;;;;;10.30;6.22;;;;;;;;;;5110989;28;20241;-59
2022/09/10 12:02:06;;;;;;;8.35;5.78;;;;;;;;;;5111661;27;20682;-59
2022/09/10 12:05:11;;;;;;;10.18;5.50;;;;;;;;;;5075724;28;20214;-58
2022/09/10 12:07:48;;;;;;;7.00;5.07;;;;;;;;;;5111400;27;20703;-61
2022/09/10 12:10:53;;;;;;;9.45;5.45;;;;;;;;;;5109372;28;20267;-59
2022/09/10 12:13:21;;;;;;;9.02;5.88;;;;;;;;;;5110405;28;20279;-59
2022/09/10 12:15:54;;;;;;;17.38;6.72;;;;;;;;;;5112198;28;20224;-58
2022/09/10 12:18:24;;;;;;;10.77;6.97;;;;;;;;;;5107261;28;20218;-57
2022/09/10 12:20:54;;;;;;;11.75;6.72;;;;;;;;;;5113625;28;20233;-50
2022/09/10 12:23:29;;;;;;;9.32;6.35;;;;;;;;;;5113760;28;20226;-63
2022/09/10 12:25:58;;;;;;;15.38;7.05;;;;;;;;;;5116839;28;20222;-62
2022/09/10 12:28:41;;;;;;;10.32;6.60;;;;;;;;;;5116343;28;20232;-63
2022/09/10 12:31:11;;;;;;;9.02;6.10;;;;;;;;;;5112223;28;20226;-63
2022/09/10 12:33:41;;;;;;;9.65;6.43;;;;;;;;;;5116778;28;20312;-64
2022/09/10 12:36:15;;;;;;;13.82;6.63;;;;;;;;;;5117451;28;20291;-63
2022/09/10 12:39:05;;;;;;;11.27;7.00;;;;;;;;;;5114258;28;20282;-64
2022/09/10 12:41:35;;;;;;;12.32;6.60;;;;;;;;;;5116738;28;20230;-64
2022/09/10 12:44:34;;;;;;;10.85;5.95;;;;;;;;;;5115778;28;20219;-62
2022/09/10 12:47:10;;;;;;;10.10;6.25;;;;;;;;;;5116981;28;20321;-63
2022/09/10 12:49:52;;;;;;;11.00;6.88;;;;;;;;;;5115142;28;20237;-64
2022/09/10 12:52:44;;;;;;;11.07;6.18;;;;;;;;;;5117609;28;20225;-63
2022/09/10 12:55:27;;;;;;;10.98;6.40;;;;;;;;;;5116916;28;20229;-64
2022/09/10 12:57:59;;;;;;;11.43;7.18;;;;;;;;;;5112374;27;20218;-63
2022/09/10 13:00:37;;;;;;;11.25;7.03;;;;;;;;;;5115010;28;20230;-63
2022/09/10 13:03:07;;;;;;;12.27;7.05;;;;;;;;;;5115312;28;20251;-63
2022/09/10 13:05:37;;;;;;;10.25;6.35;;;;;;;;;;5117202;28;20222;-64
2022/09/10 13:08:18;;;;;;;9.13;5.95;;;;;;;;;;5116887;27;20222;-63
2022/09/10 13:11:10;;;;;;;12.18;7.35;;;;;;;;;;5117486;28;20226;-63
2022/09/10 13:13:54;;;;;;;11.68;7.07;;;;;;;;;;5116106;28;20565;-64
2022/09/10 13:16:25;;;;;;;11.80;7.25;;;;;;;;;;5112596;28;20513;-64
2022/09/10 13:18:53;;;;;;;12.07;7.35;;;;;;;;;;5115747;27;20218;-63
2022/09/10 13:21:22;;;;;;;13.13;7.40;;;;;;;;;;5115737;28;20531;-64
2022/09/10 13:23:51;;;;;;;14.38;8.38;;;;;;;;;;5114640;28;20232;-64
2022/09/10 13:26:46;;;;;;;15.18;8.00;;;;;;;;;;5113139;28;20720;-65
2022/09/10 13:29:37;;;;;;;15.95;8.27;;;;;;;;;;5112910;28;20613;-63
2022/09/10 13:32:10;;;;;;;13.80;8.75;;;;;;;;;;5115065;28;20230;-63
2022/09/10 13:35:19;;;;;;;14.57;9.27;;;;;;;;;;5115193;27;20233;-64
2022/09/10 13:38:19;;;;;;;13.55;8.82;;;;;;;;;;5116841;28;20356;-64
2022/09/10 13:41:05;;;;;;;13.15;8.05;;;;;;;;;;5115364;27;20294;-63
2022/09/10 13:43:38;;;;;;;13.85;8.57;;;;;;;;;;5115170;28;20230;-63
2022/09/10 13:46:11;;;;;;;17.55;9.65;;;;;;;;;;5111998;28;20229;-63
2022/09/10 13:48:44;;;;;;;16.58;9.52;;;;;;;;;;5113473;27;20721;-64
2022/09/10 13:51:35;;;;;;;16.00;9.32;;;;;;;;;;5113223;28;20218;-63
2022/09/10 13:54:22;;;;;;;16.38;9.77;;;;;;;;;;5110329;28;20241;-62
2022/09/10 13:56:50;;;;;;;16.35;9.20;;;;;;;;;;5112009;28;20252;-63
2022/09/10 13:59:29;;;;;;;15.18;9.40;;;;;;;;;;5112872;27;20242;-63
2022/09/10 14:01:58;;;;;;;13.38;8.35;;;;;;;;;;5114334;28;20252;-61
2022/09/10 14:04:34;;;;;;;16.35;9.20;;;;;;;;;;5114928;27;20252;-63
2022/09/10 14:07:20;;;;;;;15.32;9.25;;;;;;;;;;5116183;28;20238;-63
2022/09/10 14:09:52;;;;;;;15.45;8.68;;;;;;;;;;5114983;27;20677;-62
2022/09/10 14:12:22;;;;;;;14.35;8.55;;;;;;;;;;5106160;28;20229;-63
2022/09/10 14:14:52;;;;;;;15.02;8.43;;;;;;;;;;5112888;27;20686;-63
2022/09/10 14:17:24;;;;;;;16.13;8.75;;;;;;;;;;5114274;28;20229;-64
2022/09/10 14:19:58;;;;;;;13.90;7.57;;;;;;;;;;5115888;27;20602;-63
2022/09/10 14:22:26;;;;;;;11.90;7.82;;;;;;;;;;5112451;28;20585;-61
2022/09/10 14:25:02;;;;;;;9.68;7.03;;;;;;;;;;5113322;28;20218;-60
2022/09/10 14:27:31;;;;;;;11.13;7.50;;;;;;;;;;5115228;28;20237;-62
2022/09/10 14:30:19;;;;;;;15.57;7.07;;;;;;;;;;5115263;28;20564;-61
2022/09/10 14:32:46;;;;;;;10.07;6.78;;;;;;;;;;5115265;28;20316;-64
2022/09/10 14:35:38;;;;;;;10.50;6.90;;;;;;;;;;5115181;28;20253;-59
2022/09/10 14:38:25;;;;;;;12.32;6.95;;;;;;;;;;5115686;28;20226;-62
2022/09/10 14:41:18;;;;;;;10.90;7.00;;;;;;;;;;5115202;28;20547;-63
2022/09/10 14:43:45;;;;;;;10.40;7.60;;;;;;;;;;5115272;28;20218;-63
2022/09/10 14:46:46;;;;;;;11.60;7.55;;;;;;;;;;5114495;28;20230;-63
2022/09/10 14:49:13;;;;;;;13.50;7.65;;;;;;;;;;5112546;28;20271;-63
2022/09/10 14:51:41;;;;;;;12.98;8.98;;;;;;;;;;5112630;28;20233;-63
2022/09/10 14:54:12;;;;;;;11.85;7.78;;;;;;;;;;5114677;28;20240;-62
2022/09/10 14:56:45;;;;;;;14.90;10.70;;;;;;;;;;5110709;27;20224;-63
2022/09/10 14:59:12;;;;;;;15.98;12.35;;;;;;;;;;5092354;28;20231;-63
2022/09/10 15:01:44;;;;;;;14.45;9.73;;;;;;;;;;5093582;28;20791;-63
2022/09/10 15:04:16;;;;;;;12.40;7.97;;;;;;;;;;5094878;28;20679;-63
2022/09/10 15:06:43;;;;;;;13.90;8.48;;;;;;;;;;5093216;28;20223;-61
2022/09/10 15:09:11;;;;;;;12.00;8.07;;;;;;;;;;5106823;28;20283;-60
2022/09/10 15:11:45;;;;;;;14.02;8.43;;;;;;;;;;5114211;27;20237;-61
2022/09/10 15:14:14;;;;;;;11.02;7.65;;;;;;;;;;5106480;28;20286;-60